Time;durP1;ratioP1;P1;durP2;ratioP2;P2;SDS_P1;SDS_P2;PMS_P1;PMS_P2;Temp;Humidity;BMP_temperature;BMP_pressure;BME280_temperature;BME280_humidity;BME280_pressure;Samples;Min_cycle;Max_cycle;Signal;HPM_P1;HPM_P2
2022/10/30 00:01:42;;;;;;;31.07;20.33;;;;;;;13.24;100.00;101748.63;4970162;28;20239;-76
2022/10/30 00:04:07;;;;;;;27.27;19.20;;;;;;;13.23;100.00;101740.88;4969951;28;20199;-76
2022/10/30 00:06:33;;;;;;;27.50;18.70;;;;;;;13.21;100.00;101738.25;4971917;28;20192;-76
2022/10/30 00:08:58;;;;;;;26.57;19.30;;;;;;;13.21;100.00;101730.53;4969192;28;20221;-76
2022/10/30 00:11:24;;;;;;;25.60;19.63;;;;;;;13.16;100.00;101733.84;4971770;28;20222;-76
2022/10/30 00:13:49;;;;;;;23.10;18.37;;;;;;;13.14;100.00;101736.38;4971049;28;20208;-75
2022/10/30 00:16:15;;;;;;;28.37;18.30;;;;;;;13.16;100.00;101745.00;4971591;28;20188;-75
2022/10/30 00:18:43;;;;;;;29.10;19.23;;;;;;;13.18;100.00;101747.59;4971087;28;20271;-75
2022/10/30 00:21:12;;;;;;;26.27;18.53;;;;;;;13.18;100.00;101739.91;4967969;28;20211;-75
2022/10/30 00:23:37;;;;;;;27.73;18.90;;;;;;;13.16;100.00;101742.41;4966410;28;20212;-75
2022/10/30 00:26:05;;;;;;;26.80;18.00;;;;;;;13.15;100.00;101737.22;4970912;28;20672;-74
2022/10/30 00:28:31;;;;;;;23.83;17.70;;;;;;;13.09;100.00;101745.69;4971002;28;20220;-75
2022/10/30 00:31:01;;;;;;;27.37;18.03;;;;;;;13.03;100.00;101748.09;4968536;28;20243;-75
2022/10/30 00:33:28;;;;;;;24.37;17.13;;;;;;;13.00;100.00;101742.91;4970274;28;20263;-74
2022/10/30 00:35:53;;;;;;;26.27;16.83;;;;;;;13.00;100.00;101742.91;4971285;28;20208;-75
2022/10/30 00:38:19;;;;;;;21.50;16.57;;;;;;;12.91;100.00;101732.38;4969533;28;20196;-75
2022/10/30 00:40:47;;;;;;;26.47;16.43;;;;;;;12.93;100.00;101729.00;4985648;28;20276;-75
2022/10/30 00:43:30;;;;;;;20.40;15.50;;;;;;;12.88;100.00;101733.16;4969715;28;20354;-75
2022/10/30 00:46:19;;;;;;;25.43;16.70;;;;;;;12.87;100.00;101733.13;4970103;28;20188;-75
2022/10/30 00:48:49;;;;;;;22.77;15.67;;;;;;;12.86;100.00;101728.81;4967522;28;20660;-75
2022/10/30 00:51:16;;;;;;;21.47;16.20;;;;;;;12.88;100.00;101732.28;4969841;28;20291;-75
2022/10/30 00:53:42;;;;;;;24.47;16.23;;;;;;;12.90;100.00;101736.63;4973323;28;20208;-75
2022/10/30 00:56:11;;;;;;;21.20;15.30;;;;;;;12.86;100.00;101729.66;4968757;28;20200;-75
2022/10/30 00:58:43;;;;;;;22.60;15.80;;;;;;;12.86;100.00;101726.25;4970903;28;20197;-75
2022/10/30 01:01:18;;;;;;;19.70;14.40;;;;;;;12.82;100.00;101730.41;4966480;28;20242;-75
2022/10/30 01:03:45;;;;;;;18.33;13.40;;;;;;;12.80;100.00;101720.94;4969175;28;20212;-75
2022/10/30 01:06:14;;;;;;;21.37;13.47;;;;;;;12.78;100.00;101723.50;4969016;28;20287;-75
2022/10/30 01:08:40;;;;;;;22.90;14.37;;;;;;;12.74;100.00;101720.81;4977925;28;20686;-75
2022/10/30 01:11:06;;;;;;;19.83;13.27;;;;;;;12.76;100.00;101722.56;4968903;28;20251;-75
2022/10/30 01:13:34;;;;;;;20.63;13.63;;;;;;;12.71;100.00;101716.44;4966910;28;20752;-75
2022/10/30 01:16:18;;;;;;;19.60;12.43;;;;;;;12.72;100.00;101725.03;4968708;28;20319;-75
2022/10/30 01:19:17;;;;;;;18.60;13.90;;;;;;;12.73;100.00;101721.63;4967613;28;20196;-75
2022/10/30 01:22:05;;;;;;;17.33;13.07;;;;;;;12.74;100.00;101713.97;4976530;28;20232;-75
2022/10/30 01:24:45;;;;;;;20.70;14.33;;;;;;;12.79;100.00;101716.63;4965266;28;20224;-75
2022/10/30 01:27:21;;;;;;;23.70;14.90;;;;;;;12.86;100.00;101714.25;4966204;28;20211;-75
2022/10/30 01:29:59;;;;;;;21.70;15.27;;;;;;;12.88;100.00;101715.16;4967925;28;20213;-75
2022/10/30 01:32:58;;;;;;;19.37;13.50;;;;;;;12.90;100.00;101721.19;4948676;28;20208;-74
2022/10/30 01:35:43;;;;;;;19.47;14.57;;;;;;;12.99;100.00;101705.19;4968309;28;20196;-75
2022/10/30 01:38:15;;;;;;;20.70;14.53;;;;;;;13.02;100.00;101699.25;4968133;28;20254;-76
2022/10/30 01:40:44;;;;;;;19.43;14.93;;;;;;;13.02;100.00;101707.81;4972928;28;20662;-75
2022/10/30 01:43:10;;;;;;;29.80;17.97;;;;;;;13.12;100.00;101701.19;4972928;28;20216;-75
2022/10/30 01:45:56;;;;;;;27.40;17.10;;;;;;;13.19;100.00;101700.47;4966994;28;20726;-75
2022/10/30 01:48:37;;;;;;;24.53;16.60;;;;;;;13.24;100.00;101701.44;4956926;28;20220;-75
2022/10/30 01:51:24;;;;;;;24.67;16.70;;;;;;;13.29;100.00;101700.72;4969199;28;20200;-76
2022/10/30 01:54:16;;;;;;;24.30;16.13;;;;;;;13.32;100.00;101702.50;4967397;28;20623;-76
2022/10/30 01:57:07;;;;;;;23.13;16.63;;;;;;;13.36;100.00;101694.88;4968768;28;20651;-76
2022/10/30 01:59:49;;;;;;;22.73;17.37;;;;;;;13.37;100.00;101696.63;4972292;28;20195;-76
2022/10/30 02:02:15;;;;;;;25.57;17.33;;;;;;;13.43;100.00;101690.72;4968307;28;20212;-75
2022/10/30 02:04:41;;;;;;;27.13;17.27;;;;;;;13.48;100.00;101695.13;4968591;28;20260;-75
2022/10/30 02:07:07;;;;;;;27.67;17.53;;;;;;;13.54;100.00;101682.38;4969396;28;20542;-75
2022/10/30 02:09:39;;;;;;;30.00;18.97;;;;;;;13.58;100.00;101683.34;4966883;28;20278;-75
2022/10/30 02:12:05;;;;;;;27.67;18.33;;;;;;;13.54;100.00;101682.38;4970459;28;20224;-75
2022/10/30 02:14:42;;;;;;;30.37;17.13;;;;;;;13.56;100.00;101674.69;4972782;28;20223;-75
2022/10/30 02:17:08;;;;;;;25.33;17.63;;;;;;;13.50;100.00;101685.75;4965557;28;20243;-75
2022/10/30 02:19:34;;;;;;;28.97;17.00;;;;;;;13.50;100.00;101670.31;4970121;28;20246;-76
2022/10/30 02:22:01;;;;;;;26.43;17.20;;;;;;;13.51;100.00;101681.47;4968694;28;20565;-75
2022/10/30 02:24:27;;;;;;;24.23;16.13;;;;;;;13.46;100.00;101681.38;4964758;28;20188;-74
2022/10/30 02:26:53;;;;;;;24.50;16.67;;;;;;;13.43;100.00;101688.13;4973178;28;20689;-75
2022/10/30 02:29:20;;;;;;;23.57;16.00;;;;;;;13.42;100.00;101688.97;4971919;28;20204;-75
2022/10/30 02:31:46;;;;;;;25.73;15.80;;;;;;;13.43;100.00;101677.84;4961452;28;20193;-75
2022/10/30 02:34:12;;;;;;;25.40;15.53;;;;;;;13.37;100.00;101685.44;4971422;28;20189;-75
2022/10/30 02:36:37;;;;;;;22.17;14.90;;;;;;;13.38;100.00;101688.06;4965344;28;20340;-75
2022/10/30 02:39:03;;;;;;;23.73;14.97;;;;;;;13.36;100.00;101688.88;4972737;28;20184;-75
2022/10/30 02:41:28;;;;;;;21.03;15.10;;;;;;;13.29;100.00;101686.97;4971499;28;20223;-75
2022/10/30 02:43:54;;;;;;;22.90;15.27;;;;;;;13.24;100.00;101679.19;4969238;28;20192;-75
2022/10/30 02:46:20;;;;;;;19.90;14.80;;;;;;;13.17;100.00;101689.28;4971265;28;20321;-75
2022/10/30 02:48:46;;;;;;;24.57;14.33;;;;;;;13.11;100.00;101677.16;4986488;28;20263;-75
2022/10/30 02:51:12;;;;;;;21.53;14.13;;;;;;;13.08;100.00;101679.66;4971979;28;20263;-75
2022/10/30 02:53:38;;;;;;;18.17;13.73;;;;;;;13.04;100.00;101679.56;4969375;28;20208;-75
2022/10/30 02:56:10;;;;;;;19.23;14.67;;;;;;;13.01;100.00;101693.22;4971658;28;20695;-74
2022/10/30 02:58:38;;;;;;;17.17;13.20;;;;;;;12.93;100.00;101697.28;4971100;28;20188;-75
2022/10/30 03:01:11;;;;;;;17.77;13.57;;;;;;;12.83;100.00;101687.59;4975572;28;20188;-75
2022/10/30 03:03:37;;;;;;;19.50;12.73;;;;;;;12.78;100.00;101702.94;4971590;28;20227;-75
2022/10/30 03:06:05;;;;;;;17.57;12.67;;;;;;;12.73;100.00;101699.34;4970684;28;20279;-75
2022/10/30 03:08:31;;;;;;;21.17;13.37;;;;;;;12.71;100.00;101695.91;4969757;28;20223;-75
2022/10/30 03:11:04;;;;;;;20.23;13.17;;;;;;;12.64;100.00;101698.28;4987602;28;20562;-75
2022/10/30 03:13:32;;;;;;;16.63;11.43;;;;;;;12.56;100.00;101699.78;4972153;28;20204;-75
2022/10/30 03:16:02;;;;;;;15.03;11.63;;;;;;;12.48;100.00;101707.31;4971056;28;20210;-74
2022/10/30 03:18:30;;;;;;;18.37;11.93;;;;;;;12.45;100.00;101711.50;4986923;28;20279;-77
2022/10/30 03:21:00;;;;;;;16.97;12.17;;;;;;;12.44;100.00;101709.78;4955323;28;20296;-76
2022/10/30 03:23:26;;;;;;;19.17;12.57;;;;;;;12.38;100.00;101720.75;4971239;28;20216;-76
2022/10/30 03:25:56;;;;;;;20.63;12.10;;;;;;;12.38;100.00;101717.28;4978436;28;20723;-76
2022/10/30 03:28:25;;;;;;;23.57;11.87;;;;;;;12.34;100.00;101718.03;4972561;28;20224;-76
2022/10/30 03:30:57;;;;;;;18.37;11.73;;;;;;;12.32;100.00;101719.72;4987440;28;20218;-75
2022/10/30 03:33:23;;;;;;;17.73;11.57;;;;;;;12.34;100.00;101718.03;4986789;28;20303;-74
2022/10/30 03:35:50;;;;;;;19.37;11.87;;;;;;;12.36;100.00;101716.41;4971059;28;20184;-75
2022/10/30 03:38:16;;;;;;;19.70;13.13;;;;;;;12.34;100.00;101711.22;4970546;28;20196;-75
2022/10/30 03:40:41;;;;;;;20.67;13.03;;;;;;;12.32;100.00;101707.75;4970588;28;20192;-75
2022/10/30 03:43:07;;;;;;;17.73;12.47;;;;;;;12.35;100.00;101709.53;4971252;28;20208;-75
2022/10/30 03:45:33;;;;;;;20.03;12.93;;;;;;;12.37;100.00;101703.59;4969417;28;20207;-75
2022/10/30 03:48:04;;;;;;;24.37;12.77;;;;;;;12.34;100.00;101707.75;4977608;28;20263;-75
2022/10/30 03:50:29;;;;;;;21.07;12.83;;;;;;;12.32;100.00;101714.56;4969759;28;20188;-75
2022/10/30 03:52:56;;;;;;;24.33;12.87;;;;;;;12.33;100.00;101718.88;4954553;28;20210;-75
2022/10/30 03:55:22;;;;;;;19.30;13.00;;;;;;;12.40;100.00;101707.94;4970333;28;20239;-75
2022/10/30 03:57:48;;;;;;;18.80;13.47;;;;;;;12.42;100.00;101709.72;4985472;28;20677;-75
2022/10/30 04:00:17;;;;;;;18.33;13.07;;;;;;;12.39;100.00;101706.22;4970294;28;20188;-75
2022/10/30 04:02:53;;;;;;;18.27;12.27;;;;;;;12.32;100.00;101715.47;4969888;28;20216;-75
2022/10/30 04:05:21;;;;;;;18.50;12.53;;;;;;;12.38;100.00;101714.72;4967285;28;20200;-75
2022/10/30 04:07:53;;;;;;;20.43;13.07;;;;;;;12.30;100.00;101709.41;4970534;28;20199;-75
2022/10/30 04:10:19;;;;;;;17.67;13.40;;;;;;;12.31;100.00;101712.84;4967494;28;20302;-75
2022/10/30 04:12:44;;;;;;;19.37;12.13;;;;;;;12.31;100.00;101711.13;4979471;28;20296;-75
2022/10/30 04:15:10;;;;;;;19.70;12.80;;;;;;;12.28;100.00;101718.78;4966318;28;20251;-75
2022/10/30 04:17:36;;;;;;;16.27;12.70;;;;;;;12.21;100.00;101723.72;4948993;28;20248;-75
2022/10/30 04:20:03;;;;;;;20.93;12.13;;;;;;;12.22;100.00;101728.00;4970171;28;20204;-75
2022/10/30 04:22:30;;;;;;;16.60;12.13;;;;;;;12.13;100.00;101720.91;4968469;28;20282;-75
2022/10/30 04:24:56;;;;;;;18.73;12.33;;;;;;;12.11;100.00;101721.69;4969073;28;20192;-75
2022/10/30 04:27:22;;;;;;;13.97;11.43;;;;;;;12.04;100.00;101717.22;4970055;28;20202;-75
2022/10/30 04:29:48;;;;;;;17.47;11.90;;;;;;;12.02;100.00;101719.75;4966520;28;20216;-75
2022/10/30 04:32:13;;;;;;;16.43;11.60;;;;;;;12.00;100.00;101717.97;4968457;28;20300;-75
2022/10/30 04:34:39;;;;;;;19.87;12.27;;;;;;;11.92;100.00;101722.00;4966019;28;20599;-75
2022/10/30 04:37:05;;;;;;;17.00;11.37;;;;;;;11.92;100.00;101715.19;4969610;28;20692;-75
2022/10/30 04:39:32;;;;;;;15.27;11.17;;;;;;;11.94;100.00;101717.81;4969422;28;20577;-75
2022/10/30 04:42:05;;;;;;;15.07;11.17;;;;;;;11.90;100.00;101724.53;4963568;28;20207;-75
2022/10/30 04:44:33;;;;;;;15.57;10.47;;;;;;;11.88;100.00;101722.75;4979286;28;20188;-75
2022/10/30 04:46:58;;;;;;;15.63;10.53;;;;;;;11.85;100.00;101720.97;4965808;28;20244;-75
2022/10/30 04:49:24;;;;;;;13.87;10.47;;;;;;;11.92;100.00;101722.00;4962863;28;20228;-75
2022/10/30 04:51:49;;;;;;;13.13;10.53;;;;;;;11.99;100.00;101718.81;4953058;28;20212;-75
2022/10/30 04:54:16;;;;;;;14.70;11.30;;;;;;;11.96;100.00;101708.44;4969544;28;20231;-75
2022/10/30 04:56:41;;;;;;;16.17;10.97;;;;;;;11.93;100.00;101714.38;4959588;28;20228;-75
2022/10/30 04:59:07;;;;;;;19.10;11.77;;;;;;;11.93;100.00;101708.38;4969808;28;20184;-75
2022/10/30 05:01:32;;;;;;;17.60;11.27;;;;;;;11.91;100.00;101704.88;4947309;28;20196;-75
2022/10/30 05:03:59;;;;;;;18.93;11.00;;;;;;;11.90;100.00;101708.28;4968926;28;20188;-75
2022/10/30 05:06:29;;;;;;;16.83;11.97;;;;;;;11.98;100.00;101702.53;4967231;28;20191;-74
2022/10/30 05:08:55;;;;;;;18.70;11.73;;;;;;;11.95;100.00;101706.72;4963615;28;20212;-74
2022/10/30 05:11:30;;;;;;;16.13;11.37;;;;;;;11.83;100.00;101702.09;4969528;28;20242;-75
2022/10/30 05:13:56;;;;;;;14.17;11.67;;;;;;;11.79;100.00;101705.41;4964611;28;20189;-75
2022/10/30 05:16:21;;;;;;;20.30;12.03;;;;;;;11.81;100.00;101706.34;4968343;28;20560;-75
2022/10/30 05:18:46;;;;;;;19.00;13.43;;;;;;;11.90;100.00;101693.72;4967727;28;20183;-75
2022/10/30 05:21:12;;;;;;;19.43;13.40;;;;;;;11.97;100.00;101690.53;4966325;28;21061;-75
2022/10/30 05:23:37;;;;;;;18.03;13.33;;;;;;;11.97;100.00;101692.22;4964122;28;20219;-75
2022/10/30 05:26:05;;;;;;;20.70;13.83;;;;;;;11.97;100.00;101695.66;4970032;28;20246;-75
2022/10/30 05:28:30;;;;;;;19.43;13.07;;;;;;;11.96;100.00;101696.50;4964505;28;20878;-75
2022/10/30 05:30:57;;;;;;;18.07;13.17;;;;;;;11.94;100.00;101698.13;4968310;28;20314;-75
2022/10/30 05:33:54;;;;;;;19.60;13.23;;;;;;;11.92;100.00;101706.63;4966651;28;20196;-75
2022/10/30 05:36:21;;;;;;;16.43;13.13;;;;;;;11.92;100.00;101711.75;4969267;28;20188;-75
2022/10/30 05:38:47;;;;;;;17.97;13.20;;;;;;;11.89;100.00;101714.25;4966407;28;20191;-75
2022/10/30 05:41:21;;;;;;;20.77;12.73;;;;;;;11.82;100.00;101720.03;4965721;28;20215;-75
2022/10/30 05:43:47;;;;;;;15.47;12.57;;;;;;;11.84;100.00;101723.53;4984597;28;20235;-75
2022/10/30 05:46:12;;;;;;;19.00;12.67;;;;;;;11.87;100.00;101713.31;4968622;28;20620;-75
2022/10/30 05:48:38;;;;;;;20.00;13.03;;;;;;;11.89;100.00;101719.38;4968892;28;20244;-75
2022/10/30 05:51:05;;;;;;;17.63;13.40;;;;;;;11.92;100.00;101719.44;4968162;28;20283;-75
2022/10/30 05:53:31;;;;;;;20.47;13.67;;;;;;;11.92;100.00;101716.88;4965614;28;20220;-75
2022/10/30 05:55:58;;;;;;;20.33;14.43;;;;;;;11.97;100.00;101716.19;4969094;28;20650;-75
2022/10/30 05:58:28;;;;;;;18.90;14.07;;;;;;;11.91;100.00;101721.16;4969147;28;20280;-75
2022/10/30 06:00:55;;;;;;;17.47;13.37;;;;;;;11.88;100.00;101725.31;4968522;28;20191;-75
2022/10/30 06:03:35;;;;;;;21.60;15.33;;;;;;;11.85;100.00;101715.00;4969098;28;20209;-75
2022/10/30 06:06:00;;;;;;;18.13;13.80;;;;;;;11.81;100.00;101719.19;4975143;28;20192;-74
2022/10/30 06:08:26;;;;;;;15.83;13.10;;;;;;;11.80;100.00;101726.81;4969121;28;20737;-75
2022/10/30 06:10:55;;;;;;;15.70;12.97;;;;;;;11.77;100.00;101721.59;4972335;28;20232;-75
2022/10/30 06:13:40;;;;;;;17.80;12.67;;;;;;;11.75;100.00;101731.81;4969844;28;20256;-77
2022/10/30 06:16:09;;;;;;;18.07;12.20;;;;;;;11.68;100.00;101736.72;4968657;28;20197;-76
2022/10/30 06:19:00;;;;;;;20.20;12.50;;;;;;;11.64;100.00;101742.59;4969690;28;20207;-76
2022/10/30 06:21:27;;;;;;;15.67;11.53;;;;;;;11.62;100.00;101739.97;4968869;28;20688;-75
2022/10/30 06:24:13;;;;;;;18.27;12.40;;;;;;;11.69;100.00;101751.28;4966976;28;20200;-76
2022/10/30 06:27:08;;;;;;;22.80;14.43;;;;;;;11.76;100.00;101750.66;4951247;28;20205;-75
2022/10/30 06:29:34;;;;;;;17.70;13.30;;;;;;;11.77;100.00;101740.44;4971868;28;20290;-75
2022/10/30 06:31:59;;;;;;;18.10;12.67;;;;;;;11.73;100.00;101756.56;4972285;28;20200;-75
2022/10/30 06:34:26;;;;;;;25.47;13.77;;;;;;;11.71;100.00;101752.22;4971952;28;20200;-75
2022/10/30 06:36:51;;;;;;;17.90;13.43;;;;;;;11.69;100.00;101747.03;4972220;28;20242;-74
2022/10/30 06:39:17;;;;;;;18.23;12.10;;;;;;;11.72;100.00;101759.09;4964625;28;20192;-74
2022/10/30 06:41:56;;;;;;;17.93;12.70;;;;;;;11.68;100.00;101754.69;4971322;28;20216;-75
2022/10/30 06:44:41;;;;;;;14.10;11.17;;;;;;;11.76;100.00;101760.91;4973071;28;20208;-77
2022/10/30 06:47:07;;;;;;;15.63;12.47;;;;;;;11.78;100.00;101755.00;4972055;28;20576;-77
2022/10/30 06:49:33;;;;;;;15.83;12.00;;;;;;;11.85;100.00;101756.06;4970045;28;20212;-76
2022/10/30 06:51:58;;;;;;;19.03;11.83;;;;;;;11.88;100.00;101756.13;4972049;28;20633;-76
2022/10/30 06:54:24;;;;;;;16.47;11.93;;;;;;;11.87;100.00;101762.97;4969622;28;20197;-76
2022/10/30 06:57:09;;;;;;;18.97;11.53;;;;;;;11.89;100.00;101771.56;4967220;28;20268;-76
2022/10/30 06:59:44;;;;;;;16.77;11.80;;;;;;;11.93;100.00;101767.41;4971814;28;20191;-76
2022/10/30 07:02:23;;;;;;;13.67;10.97;;;;;;;11.96;100.00;101762.34;4968822;28;20701;-76
2022/10/30 07:04:53;;;;;;;12.93;11.20;;;;;;;12.01;100.00;101773.63;4971587;28;20387;-77
2022/10/30 07:07:18;;;;;;;17.20;11.43;;;;;;;12.03;100.00;101772.81;4971121;28;20196;-76
2022/10/30 07:09:45;;;;;;;14.63;10.57;;;;;;;12.18;100.00;101774.97;4975631;28;20303;-77
2022/10/30 07:12:11;;;;;;;12.83;10.27;;;;;;;12.27;100.00;101776.09;4971619;28;20255;-77
2022/10/30 07:14:56;;;;;;;14.87;9.93;;;;;;;12.38;100.00;101776.38;4973356;28;20329;-76
2022/10/30 07:17:33;;;;;;;12.47;9.73;;;;;;;12.43;100.00;101773.09;4971280;28;20688;-76
2022/10/30 07:20:04;;;;;;;12.87;9.97;;;;;;;12.52;100.00;101772.47;4971814;28;20666;-76
2022/10/30 07:22:30;;;;;;;12.43;9.57;;;;;;;12.62;100.00;101769.31;4953699;28;20263;-75
2022/10/30 07:24:55;;;;;;;16.03;9.97;;;;;;;12.75;100.00;101764.53;4971377;28;20193;-75
2022/10/30 07:27:48;;;;;;;13.70;10.00;;;;;;;12.76;100.00;101770.56;4970120;28;20287;-75
2022/10/30 07:30:31;;;;;;;15.17;10.00;;;;;;;12.86;100.00;101773.38;4972700;28;20230;-75
2022/10/30 07:33:18;;;;;;;13.87;10.70;;;;;;;13.00;100.00;101776.34;4982018;28;20212;-75
2022/10/30 07:35:55;;;;;;;15.33;10.10;;;;;;;13.01;100.00;101772.91;4954923;28;20279;-75
2022/10/30 07:38:42;;;;;;;15.97;10.77;;;;;;;13.09;100.00;101771.41;4968568;28;20674;-76
2022/10/30 07:41:21;;;;;;;13.47;10.10;;;;;;;13.11;100.00;101774.88;4962196;28;20223;-75
2022/10/30 07:43:49;;;;;;;18.47;11.27;;;;;;;13.19;100.00;101772.47;4969408;28;20263;-75
2022/10/30 07:46:35;;;;;;;17.73;10.90;;;;;;;13.34;100.00;101776.28;4971188;28;20733;-75
2022/10/30 07:49:27;;;;;;;13.67;10.87;;;;;;;13.49;100.00;101779.19;4969368;28;20220;-75
2022/10/30 07:51:57;;;;;;;14.67;10.53;;;;;;;13.58;100.00;101779.41;4971257;28;20307;-75
2022/10/30 07:54:22;;;;;;;14.67;10.17;;;;;;;13.69;100.00;101777.06;4969326;28;20271;-76
2022/10/30 07:56:48;;;;;;;17.97;10.60;;;;;;;13.86;100.00;101778.31;4969651;28;20292;-76
2022/10/30 07:59:34;;;;;;;12.67;11.20;;;;;;;14.06;100.00;101775.31;4946056;28;20240;-75
2022/10/30 08:02:38;;;;;;;15.73;10.80;;;;;;;14.27;99.51;101780.91;4971755;28;20726;-75
2022/10/30 08:05:13;;;;;;;18.37;9.73;;;;;;;14.44;99.07;101783.81;4956267;28;20668;-75
2022/10/30 08:07:57;;;;;;;16.97;10.03;;;;;;;14.59;98.34;101794.41;4958885;28;20556;-76
2022/10/30 08:10:22;;;;;;;12.73;10.07;;;;;;;14.78;97.44;101799.91;4970616;28;20212;-76
2022/10/30 08:12:48;;;;;;;13.37;9.67;;;;;;;14.97;96.58;101798.53;4968859;28;20218;-75
2022/10/30 08:15:14;;;;;;;14.53;9.83;;;;;;;15.09;96.11;101798.72;4952361;28;20220;-75
2022/10/30 08:17:44;;;;;;;12.70;9.00;;;;;;;15.20;94.90;101795.47;4968075;28;20769;-76
2022/10/30 08:20:12;;;;;;;12.30;8.67;;;;;;;15.43;94.67;101794.16;4969595;28;20196;-75
2022/10/30 08:22:48;;;;;;;13.43;8.10;;;;;;;15.67;93.56;101789.34;4965761;28;20208;-76
2022/10/30 08:25:16;;;;;;;13.17;8.47;;;;;;;15.78;92.24;101795.53;4963939;28;20188;-76
2022/10/30 08:27:59;;;;;;;11.90;8.00;;;;;;;15.83;90.63;101796.44;4967347;28;20184;-76
2022/10/30 08:30:31;;;;;;;12.67;8.10;;;;;;;16.10;89.82;101793.34;4969883;28;20200;-76
2022/10/30 08:33:06;;;;;;;12.23;7.17;;;;;;;16.30;89.67;101799.63;4969056;28;20216;-76
2022/10/30 08:36:06;;;;;;;16.27;7.23;;;;;;;16.60;87.82;101789.63;4961697;28;20307;-76
2022/10/30 08:38:31;;;;;;;12.50;6.77;;;;;;;16.86;86.25;101791.63;4968957;28;20246;-77
2022/10/30 08:41:09;;;;;;;11.32;6.75;;;;;;;17.45;84.56;101785.22;4966052;28;20562;-76
2022/10/30 08:43:40;;;;;;;10.20;6.78;;;;;;;18.76;78.75;101784.06;4965160;28;20632;-77
2022/10/30 08:46:05;;;;;;;7.20;6.22;;;;;;;20.14;73.44;101773.50;4954874;28;20267;-77
2022/10/30 08:48:31;;;;;;;10.93;6.72;;;;;;;21.15;68.32;101772.81;4969893;28;20192;-76
2022/10/30 08:50:58;;;;;;;9.90;6.05;;;;;;;22.01;65.79;101763.22;4969978;28;20545;-77
2022/10/30 08:53:28;;;;;;;10.85;5.78;;;;;;;23.08;61.41;101764.25;4953107;28;20243;-77
2022/10/30 08:55:53;;;;;;;12.45;6.72;;;;;;;22.81;61.25;101764.72;4968741;28;20674;-77
2022/10/30 08:58:33;;;;;;;11.00;6.68;;;;;;;22.65;61.81;101762.38;4969985;28;20642;-77
2022/10/30 09:00:58;;;;;;;12.65;6.68;;;;;;;23.02;60.20;101758.28;4970007;28;20227;-76
2022/10/30 09:03:43;;;;;;;13.77;7.53;;;;;;;23.84;60.12;101755.91;4968911;28;20286;-77
2022/10/30 09:06:29;;;;;;;13.63;6.93;;;;;;;24.09;57.24;101750.16;4971555;28;20191;-77
2022/10/30 09:09:22;;;;;;;11.63;7.38;;;;;;;23.93;58.10;101760.94;4957343;28;20849;-77
2022/10/30 09:11:51;;;;;;;13.02;6.50;;;;;;;24.16;56.56;101756.97;4966993;28;20694;-77
2022/10/30 09:14:16;;;;;;;8.60;6.43;;;;;;;24.45;57.13;101754.53;4967100;28;20190;-77
2022/10/30 09:16:42;;;;;;;11.98;6.07;;;;;;;25.31;54.69;101755.97;4969427;28;20211;-76
2022/10/30 09:19:08;;;;;;;9.38;6.45;;;;;;;25.89;52.67;101755.22;4970370;28;20196;-78
2022/10/30 09:21:34;;;;;;;12.68;6.90;;;;;;;26.21;52.08;101744.66;4969534;28;20639;-76
2022/10/30 09:23:59;;;;;;;15.45;6.88;;;;;;;26.08;51.48;101756.44;4954075;28;20204;-78
2022/10/30 09:26:51;;;;;;;12.13;6.38;;;;;;;27.00;50.12;101747.34;4955102;28;20200;-75
2022/10/30 09:29:26;;;;;;;14.43;6.55;;;;;;;27.30;49.75;101756.00;4966386;28;20278;-76
2022/10/30 09:32:16;;;;;;;12.75;6.47;;;;;;;27.09;47.66;101748.81;4963257;28;20217;-77
2022/10/30 09:35:07;;;;;;;13.68;7.45;;;;;;;27.71;48.30;101747.47;4964748;28;20677;-76
2022/10/30 09:37:38;;;;;;;9.38;6.25;;;;;;;27.68;48.03;101752.88;4969451;28;20188;-77
2022/10/30 09:40:18;;;;;;;13.23;6.28;;;;;;;28.09;47.32;101741.69;4969336;28;20251;-77
2022/10/30 09:42:45;;;;;;;10.43;5.88;;;;;;;28.52;46.86;101741.72;4965573;28;20219;-76
2022/10/30 09:45:27;;;;;;;13.18;7.05;;;;;;;28.86;45.08;101739.44;4966244;28;20197;-76
2022/10/30 09:48:20;;;;;;;12.60;6.88;;;;;;;29.20;45.33;101731.84;4968452;28;20673;-77
2022/10/30 09:51:29;;;;;;;11.43;6.30;;;;;;;30.01;42.80;101729.03;4957223;28;20208;-77
2022/10/30 09:54:35;;;;;;;11.30;6.35;;;;;;;29.47;43.75;101728.84;4968341;28;20216;-77
2022/10/30 09:57:15;;;;;;;11.23;5.88;;;;;;;30.30;42.19;101732.09;4970885;28;20208;-77
2022/10/30 09:59:52;;;;;;;11.27;7.10;;;;;;;30.80;41.43;101734.00;4975092;28;20187;-77
2022/10/30 10:02:36;;;;;;;11.48;6.65;;;;;;;30.96;40.18;101731.47;4978216;28;20213;-76
2022/10/30 10:05:12;;;;;;;14.70;6.85;;;;;;;31.44;39.01;101735.13;4978475;28;20223;-76
2022/10/30 10:08:13;;;;;;;16.92;6.63;;;;;;;31.67;38.59;101739.22;4975869;28;20211;-78
2022/10/30 10:11:47;;;;;;;13.70;7.07;;;;;;;32.18;37.68;101733.75;4958473;28;20200;-78
2022/10/30 10:14:20;;;;;;;10.35;6.63;;;;;;;31.51;36.95;101738.28;4918475;29;20226;-77
2022/10/30 10:16:51;;;;;;;12.65;7.50;;;;;;;31.58;37.89;101734.41;4964072;28;20259;-77
2022/10/30 10:19:40;;;;;;;15.05;7.00;;;;;;;32.71;36.98;101732.44;4956984;28;20188;-77
2022/10/30 10:22:24;;;;;;;13.48;7.82;;;;;;;33.62;35.05;101725.16;4979686;28;20231;-77
2022/10/30 10:24:51;;;;;;;13.70;6.47;;;;;;;33.97;34.47;101715.88;4976968;28;20227;-77
2022/10/30 10:27:55;;;;;;;14.77;6.70;;;;;;;34.30;34.56;101716.38;4974723;28;20215;-77
2022/10/30 10:30:22;;;;;;;12.30;7.20;;;;;;;34.59;33.56;101707.31;4973123;28;20220;-78
2022/10/30 10:33:00;;;;;;;12.50;7.20;;;;;;;34.09;33.62;101721.25;4975984;28;20220;-76
2022/10/30 10:35:55;;;;;;;13.57;7.72;;;;;;;30.33;40.95;101734.63;4972040;28;20199;-77
2022/10/30 10:38:23;;;;;;;17.70;8.18;;;;;;;28.52;44.04;101741.72;4972134;28;20283;-77
2022/10/30 10:41:29;;;;;;;11.10;7.22;;;;;;;28.69;45.55;101734.84;4971534;28;20559;-79
2022/10/30 10:44:10;;;;;;;12.18;7.97;;;;;;;28.80;44.72;101724.72;4973661;28;20208;-78
2022/10/30 10:47:19;;;;;;;15.02;7.43;;;;;;;29.02;44.12;101725.56;4970231;28;20247;-78
2022/10/30 10:50:14;;;;;;;18.02;8.93;;;;;;;31.23;38.97;101707.13;4967739;28;20209;-77
2022/10/30 10:52:45;;;;;;;14.10;7.40;;;;;;;33.89;35.11;101694.22;4969033;28;20241;-79
2022/10/30 10:55:25;;;;;;;16.05;7.35;;;;;;;35.28;32.22;101697.25;4973728;28;20196;-77
2022/10/30 10:57:52;;;;;;;10.55;7.00;;;;;;;35.85;32.15;101699.34;4972673;28;20192;-77
2022/10/30 11:00:20;;;;;;;16.45;7.47;;;;;;;35.27;32.23;101696.41;4969471;28;20211;-76
2022/10/30 11:02:57;;;;;;;14.20;7.05;;;;;;;35.68;31.21;101691.66;4970499;28;20228;-77
2022/10/30 11:05:37;;;;;;;12.15;6.70;;;;;;;34.69;31.78;101692.44;4965764;28;20195;-75
2022/10/30 11:08:15;;;;;;;14.45;6.90;;;;;;;34.29;32.29;101688.03;4969815;28;20189;-77
2022/10/30 11:10:41;;;;;;;18.55;7.00;;;;;;;36.03;31.37;101689.16;4969043;28;20221;-77
2022/10/30 11:13:12;;;;;;;14.80;7.18;;;;;;;36.93;30.17;101683.16;4966093;28;20643;-75
2022/10/30 11:15:52;;;;;;;9.00;6.38;;;;;;;35.88;30.79;101688.47;4969465;28;20188;-77
2022/10/30 11:18:18;;;;;;;16.48;6.70;;;;;;;36.83;29.14;101692.88;4965574;28;20192;-77
2022/10/30 11:21:00;;;;;;;12.30;6.88;;;;;;;35.97;30.07;101690.44;4967003;28;20662;-76
2022/10/30 11:23:42;;;;;;;12.63;6.70;;;;;;;35.55;30.92;101698.00;4966897;28;20220;-77
2022/10/30 11:26:17;;;;;;;10.25;6.60;;;;;;;35.98;30.45;101692.16;4966647;28;20192;-77
2022/10/30 11:29:13;;;;;;;13.43;6.40;;;;;;;36.36;29.82;101684.03;4969302;28;20318;-78
2022/10/30 11:31:39;;;;;;;10.38;6.13;;;;;;;36.82;29.71;101690.31;4975310;28;20622;-78
2022/10/30 11:34:17;;;;;;;13.68;6.72;;;;;;;37.36;29.38;101683.38;4975414;28;20184;-78